Time;durP1;ratioP1;P1;durP2;ratioP2;P2;SDS_P1;SDS_P2;PMS_P1;PMS_P2;Temp;Humidity;BMP_temperature;BMP_pressure;BME280_temperature;BME280_humidity;BME280_pressure;Samples;Min_cycle;Max_cycle;Signal;HPM_P1;HPM_P2
2021/12/29 00:00:23;;;;;;;;;;;6.90;1.40;;;7.26;100.00;94088.13;654205;212;24831;-75
2021/12/29 00:03:03;;;;;;;;;;;7.00;1.40;;;7.21;100.00;94097.25;653352;216;24821;-74
2021/12/29 00:05:51;;;;;;;;;;;6.90;1.40;;;7.29;100.00;94088.23;645912;216;24842;-78
2021/12/29 00:08:33;;;;;;;;;;;7.00;1.40;;;7.38;100.00;94112.01;655611;212;24812;-77
2021/12/29 00:11:14;;;;;;;;;;;7.10;1.40;;;7.38;100.00;94107.39;653876;216;24764;-76
2021/12/29 00:13:56;;;;;;;;;;;7.00;1.40;;;7.39;100.00;94105.35;654607;216;24837;-76
2021/12/29 00:16:37;;;;;;;;;;;7.10;1.40;;;7.42;100.00;94113.78;622391;224;24911;-76
2021/12/29 00:19:20;;;;;;;;;;;7.10;1.40;;;7.39;100.00;94105.95;652584;212;24863;-75
2021/12/29 00:22:08;;;;;;;;;;;7.00;1.40;;;7.30;100.00;94112.20;637020;218;24862;-77
2021/12/29 00:24:49;;;;;;;;;;;6.90;1.40;;;7.27;100.00;94107.44;654825;212;24841;-78
2021/12/29 00:27:37;;;;;;;;;;;6.90;1.40;;;7.16;100.00;94116.05;653314;212;24810;-74
2021/12/29 00:30:24;;;;;;;;;;;6.70;1.40;;;7.33;100.00;94124.63;655121;216;25279;-78
2021/12/29 00:35:52;;;;;;;0.60;0.40;;;6.90;1.40;;;7.21;100.00;94110.35;618508;226;31954;-76
2021/12/29 00:38:33;;;;;;;2.00;0.60;;;6.80;1.40;;;7.28;100.00;94133.09;646301;212;42608;-75
2021/12/29 00:41:15;;;;;;;0.43;0.37;;;7.00;1.40;;;7.18;100.00;94124.09;647222;216;31653;-74
2021/12/29 00:44:02;;;;;;;5.90;0.47;;;6.70;1.40;;;7.24;100.00;94124.48;648402;212;31618;-77
2021/12/29 00:46:44;;;;;;;0.40;0.20;;;6.90;1.40;;;7.34;100.00;94116.41;619691;222;42564;-76
2021/12/29 00:49:32;;;;;;;0.40;0.20;;;7.00;1.40;;;7.31;100.00;94111.09;647769;216;31506;-76
2021/12/29 00:52:12;;;;;;;2.00;0.40;;;7.00;1.40;;;7.33;100.00;94121.48;646490;212;31498;-77
2021/12/29 00:54:53;;;;;;;0.75;0.47;;;6.90;1.40;;;7.39;100.00;94136.25;647425;212;31507;-76
2021/12/29 00:57:35;;;;;;;0.70;0.50;;;7.00;1.40;;;7.37;100.00;94128.37;648067;212;32144;-77
2021/12/29 01:00:16;;;;;;;0.40;0.20;;;7.00;1.40;;;7.42;100.00;94135.95;647376;216;32139;-76
2021/12/29 01:03:07;;;;;;;4.37;0.80;;;7.10;1.40;;;7.47;100.00;94144.50;647102;216;31584;-74
2021/12/29 01:05:55;;;;;;;1.35;0.52;;;7.10;1.40;;;7.55;100.00;94147.70;648170;212;32037;-76
2021/12/29 01:08:36;;;;;;;10.00;0.70;;;7.10;1.40;;;7.55;100.00;94142.83;620235;226;31842;-77
2021/12/29 01:11:18;;;;;;;0.73;0.40;;;7.20;1.40;;;7.56;100.00;94158.66;632070;220;31601;-76
2021/12/29 01:14:00;;;;;;;3.50;0.80;;;7.20;1.40;;;7.61;100.00;94153.17;647201;212;31461;-77
2021/12/29 01:16:45;;;;;;;0.40;0.20;;;7.20;1.40;;;7.56;100.00;94149.27;619387;226;31888;-77
2021/12/29 01:19:27;;;;;;;1.30;0.40;;;7.20;1.40;;;7.71;100.00;94164.84;647247;212;31519;-76
2021/12/29 01:22:12;;;;;;;0.40;0.30;;;7.20;1.40;;;7.72;100.00;94173.56;646447;216;31502;-76
2021/12/29 01:24:54;;;;;;;1.17;0.37;;;7.30;1.40;;;7.69;100.00;94187.45;647248;213;31612;-75
2021/12/29 01:27:36;;;;;;;2.60;0.40;;;7.30;1.40;;;7.73;100.00;94169.00;648013;216;31535;-76
2021/12/29 01:30:17;;;;;;;1.40;0.70;;;7.20;1.40;;;7.83;100.00;94188.23;619284;222;31990;-76
2021/12/29 01:33:00;;;;;;;0.80;0.30;;;7.30;1.40;;;7.84;100.00;94185.08;647000;216;31551;-76
2021/12/29 01:35:51;;;;;;;1.90;0.40;;;7.40;1.40;;;8.05;100.00;94203.77;646928;212;31633;-76
2021/12/29 01:38:33;;;;;;;2.60;1.10;;;7.60;1.40;;;7.98;100.00;94202.34;619771;226;31888;-76
2021/12/29 01:41:15;;;;;;;0.55;0.30;;;7.50;1.40;;;8.10;100.00;94216.66;619009;222;32160;-75
2021/12/29 01:43:57;;;;;;;0.90;0.50;;;7.60;1.40;;;8.04;100.00;94197.84;648438;212;31595;-74
2021/12/29 01:46:39;;;;;;;2.10;0.50;;;7.50;1.40;;;8.07;100.00;94208.55;646485;212;31770;-78
2021/12/29 01:49:20;;;;;;;0.50;0.20;;;7.50;1.40;;;8.05;100.00;94215.63;620408;226;32025;-77
2021/12/29 01:52:11;;;;;;;1.30;0.50;;;7.50;1.40;;;8.09;100.00;94209.56;647031;216;31459;-77
2021/12/29 01:54:45;;;;;;;1.05;0.82;;;7.50;1.40;;;8.18;100.00;94219.09;647586;216;31771;-76
2021/12/29 01:57:28;;;;;;;0.80;0.40;;;7.60;1.40;;;8.11;100.00;94222.72;646883;216;32083;-75
2021/12/29 02:00:17;;;;;;;0.70;0.70;;;7.60;1.40;;;8.12;100.00;94242.25;647298;212;31542;-76
2021/12/29 02:03:00;;;;;;;0.70;0.50;;;7.70;1.40;;;8.27;100.00;94231.09;618533;226;31885;-75
2021/12/29 02:05:48;;;;;;;1.40;0.80;;;7.80;1.40;;;8.11;100.00;94213.12;646936;216;31502;-77
2021/12/29 02:08:35;;;;;;;0.90;0.70;;;7.50;1.40;;;8.08;100.00;94207.16;647457;212;31489;-76
2021/12/29 02:11:28;;;;;;;0.80;0.30;;;7.60;1.40;;;8.15;100.00;94231.39;647939;216;31494;-74
2021/12/29 02:14:09;;;;;;;2.10;0.80;;;7.60;1.40;;;8.18;100.00;94226.23;648132;216;42180;-77
2021/12/29 02:16:50;;;;;;;1.57;0.60;;;7.70;1.40;;;8.06;100.00;94226.50;646394;216;31702;-77
2021/12/29 02:19:31;;;;;;;0.70;0.40;;;7.50;1.40;;;8.18;100.00;94217.11;647858;212;31592;-77
2021/12/29 02:22:27;;;;;;;0.70;0.40;;;7.70;1.40;;;8.16;100.00;94223.16;648079;216;31544;-77
2021/12/29 02:27:56;;;;;;;0.40;0.20;;;7.60;1.40;;;8.10;100.00;94239.98;647946;216;31539;-75
2021/12/29 02:30:43;;;;;;;1.10;0.30;;;7.50;1.40;;;8.05;100.00;94238.09;646920;216;31603;-74
2021/12/29 02:35:54;;;;;;;2.20;0.30;;;7.60;1.40;;;8.13;100.00;94266.08;648165;216;31566;-77
2021/12/29 02:38:46;;;;;;;0.47;0.37;;;7.60;1.40;;;8.16;100.00;94252.70;645379;212;31472;-74
2021/12/29 02:41:25;;;;;;;2.25;0.55;;;7.60;1.40;;;8.14;100.00;94270.64;620400;222;31907;-78
2021/12/29 02:44:10;;;;;;;0.60;0.52;;;7.60;1.40;;;8.15;100.00;94286.83;648837;212;31501;-78
2021/12/29 02:46:49;;;;;;;1.80;0.70;;;7.60;1.40;;;8.16;100.00;94298.95;648564;212;42250;-76
2021/12/29 02:49:34;;;;;;;0.70;0.60;;;7.60;1.40;;;8.10;100.00;94286.63;643504;216;33098;-77
2021/12/29 02:52:15;;;;;;;2.67;0.98;;;7.50;1.40;;;8.16;100.00;94297.17;648701;216;31503;-77
2021/12/29 02:54:57;;;;;;;2.47;0.77;;;7.60;1.40;;;8.07;100.00;94298.75;619885;225;31844;-75
2021/12/29 02:57:39;;;;;;;0.65;0.40;;;7.60;1.40;;;8.08;100.00;94287.28;647974;216;31618;-77
2021/12/29 03:00:21;;;;;;;1.40;0.47;;;7.50;1.40;;;7.98;100.00;94306.98;647468;212;32035;-79
2021/12/29 03:03:03;;;;;;;0.40;0.30;;;7.50;1.40;;;7.92;100.00;94304.47;647685;216;31550;-75
2021/12/29 03:05:48;;;;;;;0.50;0.40;;;7.40;1.40;;;7.86;100.00;94305.66;641092;216;31651;-74
2021/12/29 03:08:29;;;;;;;1.58;0.55;;;7.40;1.40;;;7.84;100.00;94294.29;647457;216;31520;-76
2021/12/29 03:11:17;;;;;;;1.60;1.10;;;7.50;1.40;;;7.96;100.00;94309.20;647095;216;31550;-75
2021/12/29 03:13:58;;;;;;;2.10;0.40;;;7.60;1.40;;;8.01;100.00;94300.81;618068;226;31983;-75
2021/12/29 03:16:46;;;;;;;0.80;0.70;;;7.60;1.40;;;7.95;100.00;94321.08;619430;226;31963;-77
2021/12/29 03:19:28;;;;;;;0.70;0.50;;;7.50;1.40;;;7.96;100.00;94329.36;648292;212;31577;-75
2021/12/29 03:22:10;;;;;;;5.00;0.60;;;7.60;1.40;;;8.10;100.00;94329.98;646928;216;31565;-76
2021/12/29 03:24:57;;;;;;;4.30;0.50;;;7.70;1.40;;;8.08;100.00;94331.33;646845;216;31492;-75
2021/12/29 03:27:45;;;;;;;0.87;0.30;;;7.70;1.40;;;8.05;100.00;94335.36;648395;216;31734;-75
2021/12/29 03:30:29;;;;;;;0.40;0.30;;;7.60;1.40;;;8.13;100.00;94343.16;646851;216;31900;-76
2021/12/29 03:35:53;;;;;;;1.60;0.70;;;7.70;1.40;;;8.15;100.00;94361.20;647695;216;31522;-75
2021/12/29 03:38:35;;;;;;;1.20;0.70;;;7.70;1.40;;;8.20;100.00;94361.59;648088;216;31653;-75
2021/12/29 03:41:16;;;;;;;0.40;0.30;;;7.70;1.40;;;8.19;100.00;94359.95;647519;212;31574;-75
2021/12/29 03:43:58;;;;;;;0.50;0.30;;;7.70;1.40;;;8.18;100.00;94374.23;647653;216;31509;-77
2021/12/29 03:46:40;;;;;;;0.40;0.30;;;7.60;1.40;;;8.14;100.00;94372.66;647228;212;31588;-75
2021/12/29 03:49:24;;;;;;;0.70;0.50;;;7.60;1.40;;;8.15;100.00;94377.38;648222;216;31496;-77
2021/12/29 03:52:06;;;;;;;1.00;0.30;;;7.60;1.40;;;8.02;100.00;94370.80;648399;216;31552;-77
2021/12/29 03:54:48;;;;;;;4.20;0.40;;;7.50;1.40;;;8.02;100.00;94368.31;643535;216;31493;-76
2021/12/29 03:57:30;;;;;;;0.40;0.20;;;7.50;1.40;;;8.14;100.00;94379.57;620523;222;31991;-76
2021/12/29 04:00:12;;;;;;;0.40;0.20;;;7.60;1.40;;;8.08;100.00;94374.25;647288;216;31510;-76
2021/12/29 04:02:53;;;;;;;0.40;0.20;;;7.50;1.40;;;8.08;100.00;94368.95;648006;216;32862;-77
2021/12/29 04:05:35;;;;;;;0.40;0.30;;;7.50;1.40;;;8.02;100.00;94382.61;641618;212;31760;-77
2021/12/29 04:08:17;;;;;;;0.40;0.20;;;7.50;1.40;;;8.12;100.00;94382.83;620045;226;31876;-74
2021/12/29 04:10:59;;;;;;;1.90;0.30;;;7.50;1.40;;;8.04;100.00;94374.36;648604;212;31475;-74
2021/12/29 04:13:40;;;;;;;0.40;0.20;;;7.50;1.40;;;7.96;100.00;94397.66;647796;212;31497;-77
2021/12/29 04:16:22;;;;;;;0.70;0.50;;;7.40;1.40;;;7.86;100.00;94403.03;647026;216;31589;-75
2021/12/29 04:19:14;;;;;;;2.10;0.27;;;7.30;1.40;;;7.84;100.00;94406.50;647532;216;31494;-77
2021/12/29 04:21:48;;;;;;;0.50;0.40;;;7.30;1.40;;;7.83;100.00;94403.17;647886;216;31516;-76
2021/12/29 04:24:30;;;;;;;1.20;0.70;;;7.30;1.40;;;7.88;100.00;94407.78;648080;216;31982;-77
2021/12/29 04:27:15;;;;;;;0.40;0.20;;;7.30;1.40;;;7.84;100.00;94408.13;647844;216;31524;-77
2021/12/29 04:29:56;;;;;;;0.50;0.40;;;7.30;1.40;;;7.84;100.00;94413.55;647832;216;31516;-77
2021/12/29 04:32:38;;;;;;;0.40;0.20;;;7.30;1.40;;;7.70;100.00;94416.52;648378;212;31551;-77
2021/12/29 04:35:51;;;;;;;0.50;0.40;;;7.10;1.40;;;7.65;100.00;94428.83;647993;216;31572;-76
2021/12/29 04:38:33;;;;;;;2.03;0.27;;;7.10;1.40;;;7.59;100.00;94435.72;647170;212;31553;-75
2021/12/29 04:41:14;;;;;;;0.40;0.20;;;7.00;1.40;;;7.57;100.00;94441.16;647760;215;31467;-76
2021/12/29 04:43:56;;;;;;;4.50;0.50;;;7.00;1.40;;;7.52;100.00;94442.74;620538;225;31887;-76
2021/12/29 04:46:40;;;;;;;1.00;0.57;;;7.10;1.40;;;7.48;100.00;94417.72;646294;212;31681;-76
2021/12/29 04:49:24;;;;;;;0.70;0.30;;;7.00;1.40;;;7.41;100.00;94444.27;647712;212;31627;-76
2021/12/29 04:52:19;;;;;;;0.40;0.30;;;7.00;1.40;;;7.35;100.00;94447.66;647583;216;31510;-74
2021/12/29 04:55:00;;;;;;;0.40;0.20;;;6.90;1.40;;;7.33;100.00;94445.91;646644;212;31509;-74
2021/12/29 04:57:42;;;;;;;0.70;0.25;;;6.90;1.40;;;7.30;100.00;94447.13;647937;216;31516;-76
2021/12/29 05:00:24;;;;;;;0.70;0.43;;;6.80;1.40;;;7.30;100.00;94449.23;647330;212;31500;-76
2021/12/29 05:03:08;;;;;;;0.40;0.20;;;6.80;1.40;;;7.27;100.00;94451.84;619265;222;31848;-76
2021/12/29 05:05:54;;;;;;;1.40;0.70;;;6.90;1.40;;;7.25;100.00;94449.63;641124;216;31666;-76
2021/12/29 05:08:34;;;;;;;0.60;0.50;;;6.80;1.40;;;7.28;100.00;94457.53;646610;216;31640;-76
2021/12/29 05:11:19;;;;;;;0.40;0.30;;;6.80;1.40;;;7.32;100.00;94449.03;647302;212;31530;-75
2021/12/29 05:14:01;;;;;;;0.50;0.30;;;6.90;1.40;;;7.25;100.00;94448.48;646812;216;31869;-76
2021/12/29 05:16:42;;;;;;;1.75;0.55;;;6.80;1.40;;;7.36;100.00;94466.70;619513;222;31875;-76
2021/12/29 05:19:24;;;;;;;;;;;7.00;1.40;;;7.41;100.00;94468.30;654061;216;24834;-76
2021/12/29 05:22:05;;;;;;;;;;;7.10;1.40;;;7.45;100.00;94469.36;654571;212;24954;-76
2021/12/29 05:24:47;;;;;;;;;;;7.00;1.40;;;7.39;100.00;94469.61;652562;212;25177;-76
2021/12/29 05:27:31;;;;;;;;;;;7.00;1.40;;;7.34;100.00;94473.00;654378;216;24915;-76
2021/12/29 05:30:12;;;;;;;;;;;6.90;1.40;;;7.32;100.00;94475.70;653956;212;26497;-76
2021/12/29 05:32:54;;;;;;;;;;;6.90;1.40;;;7.39;100.00;94495.95;653478;216;24821;-76
2021/12/29 05:35:52;;;;;;;1.00;0.30;;;7.00;1.40;;;7.31;100.00;94496.65;647665;212;31835;-76
2021/12/29 05:38:33;;;;;;;0.40;0.30;;;6.90;1.40;;;7.28;100.00;94501.52;619785;226;32034;-73
2021/12/29 05:41:14;;;;;;;;;;;6.90;1.40;;;7.25;100.00;94503.41;654474;216;24816;-74
2021/12/29 05:43:59;;;;;;;;;;;6.80;1.40;;;7.21;100.00;94512.02;654208;212;24824;-75
2021/12/29 05:46:45;;;;;;;;;;;6.70;1.40;;;7.16;100.00;94502.93;607036;233;24951;-77
2021/12/29 05:49:26;;;;;;;;;;;6.70;1.40;;;7.13;100.00;94496.36;655085;216;24905;-74
2021/12/29 05:52:08;;;;;;;;;;;6.70;1.40;;;7.13;100.00;94497.37;653925;212;24933;-76
2021/12/29 05:54:49;;;;;;;;;;;6.70;1.40;;;7.13;100.00;94505.73;648775;215;24816;-75
2021/12/29 05:57:31;;;;;;;;;;;6.70;1.40;;;7.12;100.00;94514.11;653691;216;25350;-74
2021/12/29 06:00:15;;;;;;;;;;;6.70;1.40;;;7.22;100.00;94511.61;654661;216;24732;-74
2021/12/29 06:02:57;;;;;;;;;;;6.80;1.40;;;7.26;100.00;94514.55;652759;216;24732;-77
2021/12/29 06:05:38;;;;;;;;;;;6.90;1.40;;;7.23;100.00;94508.45;647859;212;24754;-75
2021/12/29 06:08:22;;;;;;;;;;;6.90;1.40;;;7.35;100.00;94519.63;649595;215;24865;-75
2021/12/29 06:11:03;;;;;;;;;;;7.00;1.40;;;7.36;100.00;94535.45;653399;212;24833;-76
2021/12/29 06:13:45;;;;;;;;;;;7.00;1.40;;;7.28;100.00;94532.31;654179;216;24908;-75
2021/12/29 06:16:27;;;;;;;;;;;6.90;1.40;;;7.21;100.00;94536.48;654415;212;24712;-74
2021/12/29 06:19:10;;;;;;;;;;;6.80;1.40;;;7.24;100.00;94536.16;653646;216;25432;-75
2021/12/29 06:21:52;;;;;;;;;;;6.90;1.40;;;7.25;100.00;94539.95;652580;212;24751;-75
2021/12/29 06:24:33;;;;;;;;;;;6.90;1.40;;;7.18;100.00;94553.45;649451;216;25244;-73
2021/12/29 06:27:14;;;;;;;;;;;6.80;1.40;;;7.18;100.00;94554.14;654561;216;24864;-75
2021/12/29 06:29:56;;;;;;;;;;;6.80;1.40;;;7.07;100.00;94550.72;654254;212;25703;-74
2021/12/29 06:32:37;;;;;;;;;;;6.60;1.40;;;7.10;100.00;94546.63;653848;216;24816;-75
2021/12/29 06:35:51;;;;;;;0.40;0.40;;;6.60;1.40;;;7.03;100.00;94549.50;619046;225;31816;-76
2021/12/29 06:38:34;;;;;;;;;;;6.60;1.40;;;7.05;100.00;94564.05;654040;216;25216;-75
2021/12/29 06:41:14;;;;;;;;;;;6.60;1.40;;;7.11;100.00;94564.05;653797;216;24820;-76
2021/12/29 06:43:55;;;;;;;;;;;6.70;1.40;;;6.98;100.00;94565.33;653149;216;25085;-76
2021/12/29 06:46:36;;;;;;;;;;;6.40;1.40;;;6.96;100.00;94577.90;654535;216;24739;-77
2021/12/29 06:49:17;;;;;;;;;;;6.50;1.40;;;7.04;100.00;94577.92;653551;216;24875;-76
2021/12/29 06:52:07;;;;;;;;;;;6.60;1.40;;;7.02;100.00;94597.05;626831;226;24875;-77
2021/12/29 06:54:50;;;;;;;;;;;6.50;1.40;;;7.04;100.00;94597.48;653300;212;24831;-77
2021/12/29 06:57:31;;;;;;;;;;;6.60;1.40;;;7.01;100.00;94596.28;654512;212;24813;-76
2021/12/29 07:00:13;;;;;;;;;;;6.60;1.40;;;7.12;100.00;94591.84;653983;212;25624;-77
2021/12/29 07:02:54;;;;;;;;;;;6.70;1.40;;;7.14;100.00;94606.40;653159;216;24719;-75
2021/12/29 07:05:36;;;;;;;;;;;6.70;1.40;;;7.12;100.00;94610.08;647708;212;25850;-76
2021/12/29 07:08:17;;;;;;;;;;;6.70;1.40;;;7.11;100.00;94617.00;654818;216;24839;-77
2021/12/29 07:10:59;;;;;;;;;;;6.70;1.40;;;7.18;100.00;94621.69;654013;216;24815;-76
2021/12/29 07:13:41;;;;;;;;;;;6.80;1.40;;;7.22;100.00;94615.93;654365;216;24813;-74
2021/12/29 07:16:21;;;;;;;;;;;6.80;1.40;;;7.23;100.00;94616.61;653593;216;24804;-76
2021/12/29 07:19:05;;;;;;;;;;;6.80;1.40;;;7.23;100.00;94618.94;653392;216;24841;-76
2021/12/29 07:21:46;;;;;;;;;;;6.90;1.40;;;7.31;100.00;94627.63;654608;212;24808;-76
2021/12/29 07:24:31;;;;;;;;;;;6.90;1.40;;;7.29;100.00;94632.25;653447;212;24876;-76
2021/12/29 07:27:12;;;;;;;;;;;6.80;1.40;;;7.32;100.00;94620.22;653653;216;24990;-75
2021/12/29 07:29:53;;;;;;;;;;;6.90;1.40;;;7.34;100.00;94630.41;649351;216;25511;-76
2021/12/29 07:32:35;;;;;;;;;;;6.90;1.40;;;7.29;100.00;94634.56;655514;216;25055;-76
2021/12/29 07:35:51;;;;;;;0.80;0.50;;;6.90;1.40;;;7.25;100.00;94649.26;648076;216;31494;-76
2021/12/29 07:38:32;;;;;;;;;;;6.80;1.40;;;7.22;100.00;94647.91;622511;224;24888;-76
2021/12/29 07:41:16;;;;;;;;;;;6.70;1.40;;;7.31;100.00;94649.88;654363;216;24824;-74
2021/12/29 07:43:59;;;;;;;;;;;6.80;1.40;;;7.31;100.00;94641.42;653511;216;24854;-76
2021/12/29 07:46:44;;;;;;;;;;;6.90;1.40;;;7.29;100.00;94654.58;623003;227;25004;-76
2021/12/29 07:49:24;;;;;;;;;;;6.90;1.40;;;7.36;100.00;94656.46;653601;216;24944;-76
2021/12/29 07:52:05;;;;;;;;;;;7.00;1.40;;;7.43;100.00;94659.59;654143;216;25217;-76
2021/12/29 07:54:47;;;;;;;;;;;7.00;1.40;;;7.48;100.00;94662.80;653424;216;24907;-76
2021/12/29 07:57:28;;;;;;;;;;;7.10;1.40;;;7.51;100.00;94669.59;655029;216;25287;-76
2021/12/29 08:00:10;;;;;;;;;;;7.10;1.40;;;7.53;100.00;94676.29;649330;217;24941;-76
2021/12/29 08:02:51;;;;;;;;;;;7.00;1.40;;;7.58;100.00;94675.41;654627;216;24726;-76
2021/12/29 08:05:36;;;;;;;;;;;7.10;1.40;;;7.59;100.00;94678.46;641797;220;24817;-75
2021/12/29 08:08:17;;;;;;;;;;;7.10;1.40;;;7.65;100.00;94690.33;654120;216;24851;-76
2021/12/29 08:10:58;;;;;;;;;;;7.20;1.40;;;7.65;100.00;94693.94;623162;224;24894;-78
2021/12/29 08:13:40;;;;;;;;;;;7.20;1.40;;;7.65;100.00;94702.91;653827;212;24904;-74
2021/12/29 08:16:24;;;;;;;;;;;7.10;1.40;;;7.72;100.00;94699.52;654003;216;24760;-79
2021/12/29 08:19:08;;;;;;;;;;;7.20;1.40;;;7.84;100.00;94703.67;652467;216;24730;-75
2021/12/29 08:21:55;;;;;;;;;;;7.40;1.40;;;7.81;100.00;94699.75;654308;216;24816;-76
2021/12/29 08:24:36;;;;;;;;;;;7.30;1.40;;;7.97;100.00;94704.29;653494;216;24808;-76
2021/12/29 08:27:17;;;;;;;;;;;7.40;1.40;;;8.00;100.00;94708.72;653447;212;24730;-77
2021/12/29 08:30:07;;;;;;;;;;;7.50;1.40;;;8.06;100.00;94704.80;652435;214;24831;-74
2021/12/29 08:32:53;;;;;;;;;;;7.50;1.40;;;8.11;100.00;94710.61;653541;216;24853;-78
2021/12/29 08:35:57;;;;;;;0.80;0.50;;;7.50;1.40;;;8.12;100.00;94711.03;645846;216;31494;-76
2021/12/29 08:38:39;;;;;;;0.40;0.30;;;7.60;1.40;;;8.13;100.00;94704.19;631906;221;42296;-75
2021/12/29 08:41:27;;;;;;;0.40;0.20;;;7.50;1.40;;;8.24;100.00;94703.67;619178;222;31868;-77
2021/12/29 08:44:15;;;;;;;0.73;0.52;;;7.70;1.40;;;8.25;100.00;94700.25;646919;216;42149;-76
2021/12/29 08:46:59;;;;;;;0.40;0.20;;;7.70;1.40;;;8.32;100.00;94718.67;645803;216;32104;-75
2021/12/29 08:49:41;;;;;;;1.10;0.40;;;7.80;1.40;;;8.43;100.00;94718.06;647155;212;31725;-76
2021/12/29 08:52:23;;;;;;;0.80;0.40;;;7.90;1.40;;;8.46;100.00;94721.97;647837;216;32002;-75
2021/12/29 08:55:07;;;;;;;0.40;0.30;;;7.90;1.40;;;8.54;100.00;94721.61;620630;226;32048;-78
2021/12/29 08:57:50;;;;;;;0.40;0.20;;;7.90;1.40;;;8.57;100.00;94725.94;647909;213;31483;-78
2021/12/29 09:00:32;;;;;;;0.50;0.30;;;8.00;1.40;;;8.60;100.00;94728.78;646819;212;32554;-78
2021/12/29 09:03:19;;;;;;;0.40;0.20;;;8.10;1.40;;;8.83;100.00;94734.80;646979;212;31496;-75
2021/12/29 09:06:07;;;;;;;0.63;0.33;;;8.50;1.40;;;9.47;100.00;94738.73;638821;212;31661;-79
2021/12/29 09:08:50;;;;;;;0.47;0.40;;;9.40;1.40;;;10.27;100.00;94736.59;646677;216;31527;-75
2021/12/29 09:11:32;;;;;;;0.90;0.30;;;10.60;1.40;;;10.30;100.00;94737.05;618860;226;32425;-75
2021/12/29 09:14:14;;;;;;;1.10;0.40;;;9.70;1.40;;;10.47;100.00;94737.11;619017;226;31833;-75
2021/12/29 09:16:56;;;;;;;2.50;0.80;;;10.50;1.40;;;11.78;100.00;94746.40;647143;216;31690;-75
2021/12/29 09:19:44;;;;;;;0.40;0.30;;;11.90;1.40;;;10.97;100.00;94757.45;647654;216;32008;-75
2021/12/29 09:22:31;;;;;;;0.80;0.50;;;9.50;1.40;;;10.06;100.00;94753.69;646640;216;31467;-77
2021/12/29 09:25:14;;;;;;;1.00;0.40;;;8.80;1.40;;;9.53;100.00;94758.05;647392;216;31630;-75
2021/12/29 09:27:56;;;;;;;3.80;0.40;;;8.80;1.40;;;9.34;100.00;94759.38;646809;216;31687;-75
2021/12/29 09:30:38;;;;;;;0.60;0.30;;;8.70;1.40;;;10.40;100.00;94750.15;646642;212;31663;-75
2021/12/29 09:35:57;;;;;;;1.58;0.40;;;9.60;1.40;;;10.38;100.00;94755.33;619478;226;32460;-78
2021/12/29 09:38:35;;;;;;;0.50;0.30;;;10.80;1.40;;;11.59;100.00;94751.28;645398;212;42121;-77
2021/12/29 09:41:19;;;;;;;1.90;0.30;;;11.90;1.40;;;12.16;100.00;94756.47;648540;216;31549;-76
2021/12/29 09:44:02;;;;;;;1.50;0.60;;;11.70;1.40;;;11.85;100.00;94746.53;646652;216;32467;-75
2021/12/29 09:46:52;;;;;;;0.50;0.40;;;11.50;1.40;;;13.00;100.00;94754.12;647589;212;31513;-79
2021/12/29 09:49:38;;;;;;;1.50;0.30;;;12.70;1.40;;;12.58;100.00;94744.28;646313;216;42730;-75
2021/12/29 09:52:19;;;;;;;1.50;0.50;;;12.10;1.40;;;12.81;100.00;94734.66;647014;216;32104;-75
2021/12/29 09:55:04;;;;;;;1.60;0.50;;;12.50;1.40;;;12.32;100.00;94742.68;645172;216;31532;-75
2021/12/29 09:57:46;;;;;;;1.20;0.60;;;11.70;1.40;;;11.85;100.00;94741.53;648038;212;31613;-75
2021/12/29 10:00:28;;;;;;;1.35;1.05;;;11.40;1.40;;;11.78;100.00;94750.47;646807;212;31519;-76
2021/12/29 10:03:10;;;;;;;1.08;0.37;;;11.40;1.40;;;12.39;100.00;94734.66;647468;212;31528;-75
2021/12/29 10:05:52;;;;;;;0.50;0.30;;;12.40;1.40;;;12.39;100.00;94737.52;643772;216;31620;-77
2021/12/29 10:08:38;;;;;;;0.80;0.50;;;12.20;1.40;;;12.33;100.00;94750.94;648689;216;31454;-75
2021/12/29 10:11:26;;;;;;;0.70;0.30;;;11.20;1.40;;;11.94;100.00;94749.70;647062;216;31492;-77
2021/12/29 10:14:14;;;;;;;0.60;0.30;;;11.40;1.40;;;12.60;100.00;94748.66;645635;212;31683;-75
2021/12/29 10:16:55;;;;;;;0.60;0.40;;;12.70;1.40;;;12.24;100.00;94765.22;647120;212;31751;-76
2021/12/29 10:19:37;;;;;;;2.70;0.50;;;12.00;1.40;;;11.92;100.00;94758.20;647396;216;31488;-75
2021/12/29 10:22:22;;;;;;;1.90;0.40;;;10.70;1.40;;;11.60;100.00;94779.73;619167;222;32384;-75
2021/12/29 10:25:08;;;;;;;4.20;0.85;;;10.80;1.40;;;11.77;100.00;94778.48;645920;212;43220;-79
2021/12/29 10:27:51;;;;;;;1.40;0.50;;;11.10;1.40;;;11.26;100.00;94766.20;647145;212;31504;-79
2021/12/29 10:30:35;;;;;;;0.70;0.30;;;10.50;1.40;;;11.09;100.00;94771.81;646260;216;38077;-75
2021/12/29 10:35:51;;;;;;;0.60;0.40;;;10.20;1.40;;;10.76;100.00;94770.28;646990;216;32097;-75
2021/12/29 10:38:39;;;;;;;1.60;0.70;;;10.10;1.40;;;10.53;100.00;94776.26;647735;216;31598;-79
2021/12/29 10:41:27;;;;;;;0.50;0.40;;;9.70;1.40;;;10.22;100.00;94773.14;645744;216;31589;-75
2021/12/29 10:44:08;;;;;;;1.40;0.40;;;9.50;1.40;;;10.37;100.00;94771.13;645760;216;31610;-76
2021/12/29 10:46:52;;;;;;;0.40;0.30;;;9.90;1.40;;;10.41;100.00;94785.69;634013;220;42358;-75
2021/12/29 10:49:32;;;;;;;0.70;0.30;;;9.60;1.40;;;10.00;100.00;94775.28;647509;216;31679;-75
2021/12/29 10:52:16;;;;;;;4.10;0.70;;;9.50;1.40;;;10.25;100.00;94769.23;640914;217;31783;-75
2021/12/29 10:58:36;;;;;;;0.60;0.43;;;10.90;1.40;;;11.53;100.00;94754.73;647618;216;31733;-75
2021/12/29 11:01:24;;;;;;;2.80;0.60;;;10.80;1.40;;;11.74;100.00;94764.21;647814;216;31511;-80
2021/12/29 11:04:05;;;;;;;0.50;0.30;;;10.90;1.40;;;11.63;100.00;94773.01;648683;212;31772;-79
2021/12/29 11:06:56;;;;;;;0.40;0.20;;;11.20;1.40;;;11.80;100.00;94768.73;646598;212;42190;-77
2021/12/29 11:09:35;;;;;;;1.30;0.60;;;11.80;1.40;;;11.90;100.00;94788.61;646129;212;41088;-75
2021/12/29 11:12:16;;;;;;;2.60;0.55;;;11.20;1.40;;;11.84;100.00;94784.20;645716;216;31650;-75
2021/12/29 11:14:58;;;;;;;2.67;0.60;;;11.30;1.40;;;11.84;100.00;94797.08;646193;212;35759;-75
2021/12/29 11:17:40;;;;;;;0.73;0.52;;;11.10;1.40;;;11.87;100.00;94794.48;619151;223;32036;-75
2021/12/29 11:20:22;;;;;;;0.40;0.30;;;11.20;1.40;;;11.57;100.00;94791.03;646874;216;42127;-75
2021/12/29 11:23:14;;;;;;;1.52;0.62;;;10.70;1.40;;;10.89;100.00;94781.02;647549;216;42310;-75
2021/12/29 11:28:24;;;;;;;2.30;0.65;;;10.10;1.40;;;10.93;100.00;94786.27;647394;212;31543;-79
2021/12/29 11:31:12;;;;;;;1.00;0.70;;;10.30;1.40;;;10.77;100.00;94785.52;645722;216;31721;-75
2021/12/29 11:35:52;;;;;;;0.80;0.50;;;9.60;1.40;;;10.12;100.00;94812.17;621009;222;31830;-78
2021/12/29 11:38:35;;;;;;;1.50;0.70;;;9.50;1.40;;;10.21;100.00;94788.19;647173;216;31607;-76
2021/12/29 11:41:23;;;;;;;1.23;0.77;;;9.20;1.40;;;9.78;100.00;94791.78;646978;216;42762;-79
2021/12/29 11:44:05;;;;;;;2.40;0.80;;;9.10;1.40;;;9.88;100.00;94797.81;646959;216;31477;-79
2021/12/29 11:46:46;;;;;;;0.40;0.30;;;9.00;1.40;;;9.81;100.00;94799.70;648887;216;31555;-79
2021/12/29 11:49:30;;;;;;;3.60;1.30;;;9.00;1.40;;;9.77;100.00;94796.31;646985;216;42205;-76
2021/12/29 11:55:18;;;;;;;0.65;0.30;;;8.90;1.40;;;9.78;100.00;94810.58;647372;216;31494;-77
2021/12/29 11:58:08;;;;;;;0.77;0.53;;;9.00;1.40;;;9.77;100.00;94812.02;646985;216;31567;-75
2021/12/29 12:01:06;;;;;;;1.00;0.50;;;8.90;1.40;;;9.70;100.00;94801.50;619591;222;32020;-77
2021/12/29 12:03:55;;;;;;;1.10;1.00;;;8.90;1.40;;;9.59;100.00;94803.95;646925;216;31617;-75
2021/12/29 12:06:38;;;;;;;2.10;0.60;;;8.90;1.40;;;9.67;100.00;94807.57;640634;212;31672;-76
2021/12/29 12:09:21;;;;;;;0.70;0.50;;;8.90;1.40;;;9.74;100.00;94807.48;647068;216;31513;-76
2021/12/29 12:12:03;;;;;;;3.50;1.00;;;9.10;1.40;;;9.84;100.00;94806.66;646384;212;31602;-75
2021/12/29 12:17:27;;;;;;;0.62;0.40;;;8.90;1.40;;;9.92;100.00;94795.07;650256;216;31588;-80
2021/12/29 12:20:10;;;;;;;1.50;0.40;;;9.20;1.40;;;10.07;100.00;94795.73;646552;212;32086;-76
2021/12/29 12:22:52;;;;;;;0.80;0.50;;;9.20;1.40;;;10.19;100.00;94790.44;646446;216;32224;-75
2021/12/29 12:25:34;;;;;;;0.90;0.50;;;9.40;1.40;;;10.05;100.00;94783.66;619349;222;31888;-76
2021/12/29 12:28:18;;;;;;;1.30;0.60;;;9.40;1.40;;;10.20;100.00;94786.95;622773;222;32005;-78